createdAt,value
2019-02-24T00:01:13.752Z,18.60
2019-02-24T00:03:40.494Z,18.60
2019-02-24T00:06:07.343Z,18.60
2019-02-24T00:08:34.480Z,18.60
2019-02-24T00:11:01.182Z,18.60
2019-02-24T00:13:27.974Z,18.70
2019-02-24T00:15:54.818Z,18.80
2019-02-24T00:18:21.662Z,18.80
2019-02-24T00:20:48.558Z,18.90
2019-02-24T00:23:15.340Z,18.90
2019-02-24T00:25:42.079Z,18.90
2019-02-24T00:28:08.889Z,18.90
2019-02-24T00:30:36.215Z,18.90
2019-02-24T00:33:02.911Z,19.00
2019-02-24T00:35:29.647Z,19.00
2019-02-24T00:37:56.872Z,19.00
2019-02-24T00:40:23.942Z,19.00
2019-02-24T00:42:51.214Z,19.10
2019-02-24T00:45:17.927Z,19.10
2019-02-24T00:47:44.674Z,19.10
2019-02-24T00:50:11.544Z,19.10
2019-02-24T00:52:38.255Z,19.00
2019-02-24T00:55:04.985Z,19.00
2019-02-24T00:57:31.727Z,19.00
2019-02-24T00:59:58.474Z,19.00
2019-02-24T01:02:25.319Z,18.90
2019-02-24T01:04:52.160Z,18.50
2019-02-24T01:07:18.953Z,18.50
2019-02-24T01:09:45.693Z,18.40
2019-02-24T01:12:12.369Z,18.50
2019-02-24T01:14:39.077Z,18.60
2019-02-24T01:17:05.951Z,18.40
2019-02-24T01:19:32.687Z,18.30
2019-02-24T01:21:59.832Z,17.90
2019-02-24T01:24:26.572Z,17.90
2019-02-24T01:26:53.311Z,17.80
2019-02-24T01:29:20.051Z,17.90
2019-02-24T01:31:46.805Z,17.70
2019-02-24T01:34:13.646Z,17.80
2019-02-24T01:36:40.495Z,17.70
2019-02-24T01:39:07.209Z,18.00
2019-02-24T01:41:33.972Z,17.90
2019-02-24T01:44:00.903Z,18.10
2019-02-24T01:46:27.646Z,18.20
2019-02-24T01:48:54.395Z,18.40
2019-02-24T01:51:21.113Z,18.50
2019-02-24T01:53:47.863Z,18.60
2019-02-24T01:56:14.802Z,18.70
2019-02-24T01:58:41.551Z,18.70
2019-02-24T02:01:08.401Z,18.80
2019-02-24T02:03:35.171Z,18.80
2019-02-24T02:06:01.971Z,18.90
2019-02-24T02:08:28.658Z,19.00
2019-02-24T02:10:55.352Z,19.00
2019-02-24T02:13:22.229Z,19.00
2019-02-24T02:15:48.894Z,18.90
2019-02-24T02:18:15.668Z,18.80
2019-02-24T02:20:42.438Z,18.70
2019-02-24T02:23:09.147Z,18.80
2019-02-24T02:25:36.008Z,18.80
2019-02-24T02:28:02.731Z,18.80
2019-02-24T02:30:29.579Z,18.90
2019-02-24T02:32:56.405Z,18.90
2019-02-24T02:35:23.133Z,19.00
2019-02-24T02:37:49.885Z,18.90
2019-02-24T02:40:16.635Z,19.00
2019-02-24T02:42:43.492Z,19.00
2019-02-24T02:45:10.307Z,19.00
2019-02-24T02:47:37.181Z,18.90
2019-02-24T02:50:04.199Z,18.90
2019-02-24T02:52:30.906Z,18.80
2019-02-24T02:54:57.667Z,18.80
2019-02-24T02:57:24.410Z,18.70
2019-02-24T02:59:51.144Z,18.60
2019-02-24T03:02:24.314Z,18.70
2019-02-24T03:04:46.277Z,18.60
2019-02-24T03:07:13.118Z,18.50
2019-02-24T03:09:39.960Z,18.50
2019-02-24T03:12:06.692Z,18.70
2019-02-24T03:14:33.436Z,18.70
2019-02-24T03:17:00.274Z,18.80
2019-02-24T03:19:27.003Z,18.90
2019-02-24T03:21:53.745Z,19.00
2019-02-24T03:32:09.385Z,19.20
2019-02-24T03:34:36.223Z,19.20
2019-02-24T03:37:02.964Z,19.10
2019-02-24T03:39:29.698Z,19.10
2019-02-24T03:41:56.448Z,19.20
2019-02-24T03:44:23.180Z,19.20
2019-02-24T03:46:49.924Z,19.20
2019-02-24T03:49:16.665Z,18.30
2019-02-24T03:51:43.507Z,18.20
2019-02-24T03:54:10.228Z,18.00
2019-02-24T03:56:36.993Z,18.10
2019-02-24T03:59:14.453Z,18.00
2019-02-24T04:01:32.294Z,18.10
2019-02-24T04:03:59.036Z,18.10
2019-02-24T04:06:25.887Z,18.30
2019-02-24T04:08:52.730Z,18.30
2019-02-24T04:11:19.571Z,18.50
2019-02-24T04:13:46.511Z,18.60
2019-02-24T04:16:13.359Z,18.80
2019-02-24T04:18:40.300Z,18.90
2019-02-24T04:21:07.003Z,18.90
2019-02-24T04:23:33.774Z,18.90
2019-02-24T04:26:00.490Z,18.90
2019-02-24T04:28:27.252Z,18.80
2019-02-24T04:30:54.087Z,18.80
2019-02-24T04:33:20.835Z,18.90
2019-02-24T04:35:47.567Z,19.00
2019-02-24T04:38:15.988Z,19.00
2019-02-24T04:40:42.902Z,19.00
2019-02-24T04:43:09.732Z,18.80
2019-02-24T04:45:36.584Z,18.80
2019-02-24T04:48:03.426Z,18.90
2019-02-24T04:50:30.310Z,18.80
2019-02-24T04:52:57.107Z,18.50
2019-02-24T04:55:23.948Z,18.30
2019-02-24T04:57:50.794Z,18.40
2019-02-24T05:00:17.527Z,18.40
2019-02-24T05:02:44.374Z,18.60
2019-02-24T05:05:11.207Z,18.50
2019-02-24T05:07:38.038Z,18.40
2019-02-24T05:10:04.715Z,18.40
2019-02-24T05:12:31.712Z,18.00
2019-02-24T05:14:58.575Z,18.20
2019-02-24T05:17:25.319Z,18.30
2019-02-24T05:19:52.255Z,18.10
2019-02-24T05:22:19.101Z,17.50
2019-02-24T05:24:45.949Z,17.30
2019-02-24T05:27:12.674Z,17.40
2019-02-24T05:29:45.831Z,17.50
2019-02-24T05:32:08.300Z,17.70
2019-02-24T05:34:35.005Z,17.50
2019-02-24T05:37:01.780Z,17.40
2019-02-24T05:39:28.528Z,17.50
2019-02-24T05:41:55.369Z,17.50
2019-02-24T05:44:22.722Z,17.90
2019-02-24T05:46:49.475Z,17.80
2019-02-24T05:49:16.305Z,17.90
2019-02-24T05:51:43.153Z,18.10
2019-02-24T05:54:09.885Z,18.00
2019-02-24T05:56:36.730Z,18.20
2019-02-24T05:59:03.457Z,18.00
2019-02-24T06:01:30.214Z,18.10
2019-02-24T06:03:57.058Z,17.60
2019-02-24T06:06:23.803Z,17.60
2019-02-24T06:08:50.623Z,17.70
2019-02-24T06:11:17.473Z,18.00
2019-02-24T06:13:44.313Z,18.30
2019-02-24T06:16:11.350Z,18.30
2019-02-24T06:18:38.201Z,18.40
2019-02-24T06:21:04.983Z,18.40
2019-02-24T06:23:31.777Z,18.40
2019-02-24T06:25:58.551Z,18.50
2019-02-24T06:28:25.220Z,18.60
2019-02-24T06:30:51.886Z,18.40
2019-02-24T06:33:18.726Z,18.30
2019-02-24T06:35:45.375Z,17.90
2019-02-24T06:38:12.215Z,17.60
2019-02-24T06:40:39.070Z,17.70
2019-02-24T06:43:05.788Z,17.50
2019-02-24T06:45:32.493Z,17.60
2019-02-24T06:47:59.333Z,17.20
2019-02-24T06:50:35.105Z,17.30
2019-02-24T06:52:54.909Z,17.70
2019-02-24T06:55:21.642Z,17.60
2019-02-24T06:57:48.380Z,17.30
2019-02-24T07:00:15.218Z,17.40
2019-02-24T07:02:41.968Z,17.50
2019-02-24T07:05:08.712Z,17.80
2019-02-24T07:07:35.442Z,18.10
2019-02-24T07:10:02.284Z,18.00
2019-02-24T07:12:29.127Z,17.80
2019-02-24T07:14:55.827Z,18.00
2019-02-24T07:17:22.612Z,17.40
2019-02-24T07:19:49.450Z,17.00
2019-02-24T07:22:16.649Z,17.00
2019-02-24T07:24:43.467Z,17.40
2019-02-24T07:27:10.283Z,17.60
2019-02-24T07:29:37.119Z,18.00
2019-02-24T07:32:03.953Z,18.00
2019-02-24T07:34:30.820Z,18.00
2019-02-24T07:36:57.536Z,18.30
2019-02-24T07:39:24.241Z,18.40
2019-02-24T07:41:50.907Z,18.60
2019-02-24T07:44:17.554Z,18.90
2019-02-24T07:46:44.389Z,18.60
2019-02-24T07:49:11.126Z,18.60
2019-02-24T07:51:37.874Z,18.30
2019-02-24T07:54:04.612Z,18.50
2019-02-24T07:56:31.562Z,18.50
2019-02-24T07:58:58.407Z,18.70
2019-02-24T08:01:25.149Z,18.70
2019-02-24T08:03:52.196Z,18.70
2019-02-24T08:06:19.030Z,19.00
2019-02-24T08:08:45.869Z,18.50
2019-02-24T08:11:12.955Z,18.10
2019-02-24T08:13:39.665Z,18.30
2019-02-24T08:16:06.506Z,18.70
2019-02-24T08:18:33.336Z,19.00
2019-02-24T08:21:00.201Z,19.20
2019-02-24T08:23:27.229Z,19.20
2019-02-24T08:25:54.069Z,19.00
2019-02-24T08:28:20.934Z,19.20
2019-02-24T08:30:47.758Z,18.90
2019-02-24T08:33:14.493Z,19.20
2019-02-24T08:35:41.634Z,19.20
2019-02-24T08:38:08.426Z,19.30
2019-02-24T08:40:35.220Z,19.40
2019-02-24T08:43:02.063Z,19.50
2019-02-24T08:45:28.909Z,19.40
2019-02-24T08:47:55.849Z,19.70
2019-02-24T08:50:22.648Z,19.90
2019-02-24T08:52:49.445Z,19.80
2019-02-24T08:55:16.260Z,19.80
2019-02-24T08:57:43.000Z,19.90
2019-02-24T09:00:09.870Z,20.00
2019-02-24T09:02:36.552Z,20.10
2019-02-24T09:05:03.229Z,19.90
2019-02-24T09:07:33.592Z,20.00
2019-02-24T09:10:00.470Z,20.10
2019-02-24T09:12:27.448Z,20.00
2019-02-24T09:14:54.145Z,20.00
2019-02-24T09:17:21.359Z,20.10
2019-02-24T09:19:48.065Z,20.10
2019-02-24T09:22:14.806Z,20.10
2019-02-24T09:24:41.820Z,20.00
2019-02-24T09:27:08.586Z,20.00
2019-02-24T09:29:35.953Z,20.00
2019-02-24T09:32:02.915Z,20.00
2019-02-24T09:34:29.800Z,20.10
2019-02-24T09:36:56.591Z,20.10
2019-02-24T09:39:23.418Z,20.20
2019-02-24T09:41:50.147Z,20.20
2019-02-24T09:44:17.001Z,20.10
2019-02-24T09:46:44.035Z,20.00
2019-02-24T09:49:10.878Z,20.00
2019-02-24T09:51:37.613Z,20.20
2019-02-24T09:54:04.351Z,20.20
2019-02-24T09:56:31.214Z,20.40
2019-02-24T09:58:58.058Z,20.40
2019-02-24T10:01:24.878Z,20.10
2019-02-24T10:03:51.720Z,20.10
2019-02-24T10:06:18.467Z,20.10
2019-02-24T10:08:45.288Z,20.10
2019-02-24T10:11:13.256Z,20.30
2019-02-24T10:13:40.210Z,20.30
2019-02-24T10:16:06.956Z,20.40
2019-02-24T10:18:33.702Z,20.50
2019-02-24T10:21:00.549Z,20.50
2019-02-24T10:23:27.384Z,20.20
2019-02-24T10:25:54.082Z,20.30
2019-02-24T10:28:20.751Z,20.50
2019-02-24T10:30:47.609Z,20.70
2019-02-24T10:33:14.451Z,20.70
2019-02-24T10:35:41.286Z,20.90
2019-02-24T10:38:08.174Z,20.70
2019-02-24T10:40:34.835Z,20.60
2019-02-24T10:43:01.603Z,20.40
2019-02-24T10:45:28.461Z,20.50
2019-02-24T10:47:55.301Z,20.00
2019-02-24T10:50:22.133Z,20.10
2019-02-24T10:52:48.993Z,19.80
2019-02-24T10:55:15.815Z,20.10
2019-02-24T10:57:42.661Z,20.40
2019-02-24T11:00:09.604Z,20.20
2019-02-24T11:02:36.443Z,20.20
2019-02-24T11:05:03.193Z,20.20
2019-02-24T11:07:30.020Z,20.10
2019-02-24T11:09:56.751Z,19.50
2019-02-24T11:12:23.535Z,19.60
2019-02-24T11:14:50.444Z,20.00
2019-02-24T11:17:17.283Z,20.30
2019-02-24T11:19:44.129Z,20.40
2019-02-24T11:22:10.883Z,20.30
2019-02-24T11:24:37.606Z,19.90
2019-02-24T11:27:04.456Z,19.90
2019-02-24T11:29:31.393Z,19.90
2019-02-24T11:31:58.240Z,20.00
2019-02-24T11:34:24.988Z,19.90
2019-02-24T11:36:51.820Z,19.80
2019-02-24T11:39:18.655Z,19.70
2019-02-24T11:41:45.536Z,19.70
2019-02-24T11:44:12.332Z,19.60
2019-02-24T11:46:39.077Z,19.60
2019-02-24T11:49:05.929Z,19.60
2019-02-24T11:51:32.760Z,19.60
2019-02-24T11:53:59.677Z,19.80
2019-02-24T11:56:26.454Z,20.00
2019-02-24T11:58:53.287Z,20.30
2019-02-24T12:01:20.022Z,20.20
2019-02-24T12:03:47.259Z,20.10
2019-02-24T12:06:13.909Z,20.40
2019-02-24T12:08:40.653Z,20.30
2019-02-24T12:11:07.389Z,20.40
2019-02-24T12:13:34.138Z,20.40
2019-02-24T12:16:01.377Z,20.30
2019-02-24T12:18:28.225Z,20.70
2019-02-24T12:20:54.971Z,21.00
2019-02-24T12:23:22.118Z,21.40
2019-02-24T12:25:48.946Z,21.80
2019-02-24T12:28:16.186Z,22.00
2019-02-24T12:30:42.956Z,22.00
2019-02-24T12:33:09.677Z,22.50
2019-02-24T12:35:36.392Z,22.80
2019-02-24T12:38:03.167Z,22.80
2019-02-24T12:40:30.013Z,23.10
2019-02-24T12:42:56.901Z,23.60
2019-02-24T12:45:23.699Z,24.10
2019-02-24T12:47:50.533Z,24.40
2019-02-24T12:50:17.478Z,24.90
2019-02-24T12:52:44.626Z,25.30
2019-02-24T12:55:11.498Z,25.20
2019-02-24T12:57:38.298Z,25.20
2019-02-24T13:00:05.053Z,25.40
2019-02-24T13:02:31.880Z,25.50
2019-02-24T13:04:59.295Z,25.50
2019-02-24T13:07:26.503Z,25.70
2019-02-24T13:09:53.339Z,25.70
2019-02-24T13:12:20.079Z,25.30
2019-02-24T13:14:46.921Z,24.90
2019-02-24T13:17:14.155Z,25.00
2019-02-24T13:19:41.022Z,25.10
2019-02-24T13:22:07.905Z,25.00
2019-02-24T13:24:34.708Z,24.60
2019-02-24T13:27:01.527Z,24.40
2019-02-24T13:29:28.677Z,24.20
2019-02-24T13:31:55.528Z,24.30
2019-02-24T13:34:22.270Z,24.00
2019-02-24T13:36:49.105Z,23.70
2019-02-24T13:39:16.039Z,24.00
2019-02-24T13:41:43.450Z,23.60
2019-02-24T13:44:10.254Z,23.70
2019-02-24T13:46:37.099Z,24.10
2019-02-24T13:49:03.929Z,24.40
2019-02-24T13:51:30.766Z,24.20
2019-02-24T13:53:57.600Z,24.20
2019-02-24T13:56:24.325Z,24.40
2019-02-24T13:58:51.083Z,24.60
2019-02-24T14:01:17.939Z,24.10
2019-02-24T14:03:44.656Z,23.90
2019-02-24T14:06:11.417Z,23.50
2019-02-24T14:08:38.246Z,23.40
2019-02-24T14:11:05.003Z,23.40
2019-02-24T14:13:31.871Z,23.10
2019-02-24T14:15:58.680Z,22.40
2019-02-24T14:18:25.517Z,22.00
2019-02-24T14:20:52.347Z,21.90
2019-02-24T14:23:19.303Z,21.90
2019-02-24T14:25:46.248Z,22.00
2019-02-24T14:28:13.086Z,22.00
2019-02-24T14:30:40.317Z,21.90
2019-02-24T14:33:07.591Z,21.90
2019-02-24T14:35:34.322Z,22.00
2019-02-24T14:38:01.247Z,21.90
2019-02-24T14:40:28.243Z,21.90
2019-02-24T14:42:55.116Z,21.50
2019-02-24T14:45:22.390Z,21.70
2019-02-24T14:47:50.173Z,21.40
2019-02-24T14:50:17.034Z,21.20
2019-02-24T14:52:43.741Z,21.20
2019-02-24T14:55:10.636Z,21.30
2019-02-24T14:57:37.394Z,21.40
2019-02-24T15:00:04.097Z,21.60
2019-02-24T15:02:31.145Z,21.60
2019-02-24T15:04:58.736Z,21.50
2019-02-24T15:07:25.908Z,21.50
2019-02-24T15:09:52.761Z,21.30
2019-02-24T15:12:19.667Z,20.90
2019-02-24T15:14:46.501Z,20.80
2019-02-24T15:17:13.659Z,20.80
2019-02-24T15:19:40.850Z,20.10
2019-02-24T15:22:08.072Z,19.40
2019-02-24T15:24:35.155Z,19.40
2019-02-24T15:27:02.465Z,19.00
2019-02-24T15:29:29.176Z,18.90
2019-02-24T15:31:56.625Z,19.20
2019-02-24T15:34:23.481Z,19.60
2019-02-24T15:36:50.476Z,19.90
2019-02-24T15:39:17.214Z,20.50
2019-02-24T15:41:44.468Z,20.40
2019-02-24T15:44:11.322Z,20.70
2019-02-24T15:46:38.159Z,20.80
2019-02-24T15:49:05.359Z,20.80
2019-02-24T15:51:32.274Z,20.70
2019-02-24T15:53:59.370Z,20.80
2019-02-24T15:56:27.081Z,20.70
2019-02-24T15:58:54.307Z,20.70
2019-02-24T16:01:21.460Z,20.70
2019-02-24T16:03:48.510Z,20.70
2019-02-24T16:06:15.398Z,20.80
2019-02-24T16:08:43.228Z,20.80
2019-02-24T16:11:09.915Z,20.30
2019-02-24T16:13:36.690Z,20.30
2019-02-24T16:16:03.438Z,20.10
2019-02-24T16:18:30.164Z,20.10
2019-02-24T16:20:56.913Z,20.20
2019-02-24T16:23:23.753Z,20.10
2019-02-24T16:25:50.494Z,20.20
2019-02-24T16:28:17.353Z,20.10
2019-02-24T16:30:44.064Z,20.20
2019-02-24T16:33:11.006Z,20.40
2019-02-24T16:35:37.911Z,20.40
2019-02-24T16:38:04.602Z,20.60
2019-02-24T16:40:31.445Z,20.60
2019-02-24T16:42:58.177Z,20.60
2019-02-24T16:45:25.028Z,20.60
2019-02-24T16:47:51.763Z,20.70
2019-02-24T16:50:18.489Z,20.60
2019-02-24T16:52:45.239Z,20.70
2019-02-24T16:55:12.086Z,20.80
2019-02-24T16:57:38.912Z,20.90
2019-02-24T17:00:05.881Z,20.90
2019-02-24T17:02:32.705Z,20.90
2019-02-24T17:04:59.547Z,21.00
2019-02-24T17:07:26.247Z,21.10
2019-02-24T17:09:53.233Z,20.90
2019-02-24T17:12:20.035Z,21.00
2019-02-24T17:14:46.933Z,21.10
2019-02-24T17:17:13.748Z,20.90
2019-02-24T17:19:41.046Z,20.90
2019-02-24T17:22:08.055Z,20.80
2019-02-24T17:24:35.918Z,20.80
2019-02-24T17:27:04.156Z,20.90
2019-02-24T17:29:31.502Z,20.90
2019-02-24T17:32:09.850Z,21.00
2019-02-24T17:34:36.713Z,21.00
2019-02-24T17:37:03.543Z,21.00
2019-02-24T17:39:30.386Z,20.90
2019-02-24T17:41:57.254Z,20.60
2019-02-24T17:44:24.073Z,20.50
2019-02-24T17:46:50.915Z,20.60
2019-02-24T17:49:17.619Z,20.50
2019-02-24T17:51:44.548Z,20.40
2019-02-24T17:54:11.255Z,20.50
2019-02-24T17:56:38.076Z,20.70
2019-02-24T17:59:05.006Z,20.80
2019-02-24T18:01:31.759Z,20.70
2019-02-24T18:03:58.701Z,20.80
2019-02-24T18:06:25.438Z,20.80
2019-02-24T18:08:54.296Z,20.60
2019-02-24T18:11:20.915Z,20.70
2019-02-24T18:13:47.707Z,20.70
2019-02-24T18:16:14.545Z,20.70
2019-02-24T18:18:41.612Z,20.80
2019-02-24T18:21:08.450Z,20.70
2019-02-24T18:23:35.169Z,20.60
2019-02-24T18:26:02.020Z,20.60
2019-02-24T18:28:28.860Z,20.40
2019-02-24T18:30:55.594Z,20.50
2019-02-24T18:33:22.997Z,20.50
2019-02-24T18:35:49.752Z,20.60
2019-02-24T18:38:16.431Z,20.30
2019-02-24T18:40:43.706Z,20.50
2019-02-24T18:43:10.590Z,20.50
2019-02-24T18:45:37.598Z,20.60
2019-02-24T18:48:04.309Z,20.40
2019-02-24T18:50:31.168Z,20.50
2019-02-24T18:52:59.117Z,20.50
2019-02-24T18:55:26.252Z,20.60
2019-02-24T18:57:53.002Z,20.60
2019-02-24T19:00:19.852Z,20.40
2019-02-24T19:02:46.685Z,20.50
2019-02-24T19:05:13.999Z,20.40
2019-02-24T19:07:41.122Z,20.20
2019-02-24T19:10:08.021Z,20.10
2019-02-24T19:12:34.779Z,20.20
2019-02-24T19:15:01.500Z,20.30
2019-02-24T19:17:28.356Z,20.40
2019-02-24T19:19:55.192Z,20.50
2019-02-24T19:22:22.295Z,20.40
2019-02-24T19:24:49.072Z,20.40
2019-02-24T19:27:15.822Z,20.50
2019-02-24T19:29:42.668Z,20.50
2019-02-24T19:32:09.391Z,20.50
2019-02-24T19:34:36.141Z,20.70
2019-02-24T19:37:02.895Z,20.70
2019-02-24T19:39:29.607Z,20.60
2019-02-24T19:41:56.458Z,20.70
2019-02-24T19:44:23.194Z,20.60
2019-02-24T19:46:49.941Z,20.60
2019-02-24T19:49:16.782Z,20.60
2019-02-24T19:51:43.730Z,20.70
2019-02-24T19:54:10.515Z,20.70
2019-02-24T19:56:37.299Z,20.70
2019-02-24T19:59:04.148Z,20.50
2019-02-24T20:01:31.025Z,20.50
2019-02-24T20:03:57.846Z,20.50
2019-02-24T20:06:25.016Z,20.40
2019-02-24T20:08:51.894Z,20.50
2019-02-24T20:11:18.610Z,20.40
2019-02-24T20:13:45.405Z,20.40
2019-02-24T20:16:12.181Z,20.30
2019-02-24T20:18:38.933Z,20.20
2019-02-24T20:21:07.810Z,20.00
2019-02-24T20:23:34.209Z,20.10
2019-02-24T20:26:01.078Z,19.70
2019-02-24T20:28:27.789Z,19.80
2019-02-24T20:30:54.652Z,19.70
2019-02-24T20:33:22.550Z,19.40
2019-02-24T20:35:49.704Z,19.60
2019-02-24T20:38:16.417Z,19.90
2019-02-24T20:40:43.127Z,20.10
2019-02-24T20:43:09.970Z,20.30
2019-02-24T20:45:36.672Z,20.40
2019-02-24T20:48:03.457Z,20.50
2019-02-24T20:50:30.311Z,20.70
2019-02-24T20:52:57.184Z,20.60
2019-02-24T20:55:24.021Z,20.70
2019-02-24T20:57:50.819Z,20.50
2019-02-24T21:00:17.951Z,20.50
2019-02-24T21:02:44.794Z,20.60
2019-02-24T21:05:11.833Z,20.60
2019-02-24T21:07:39.252Z,20.70
2019-02-24T21:10:06.777Z,20.70
2019-02-24T21:12:33.713Z,20.80
2019-02-24T21:15:00.753Z,20.90
2019-02-24T21:17:27.579Z,21.00
2019-02-24T21:19:54.420Z,21.10
2019-02-24T21:22:21.173Z,21.20
2019-02-24T21:24:49.023Z,21.30
2019-02-24T21:27:17.308Z,21.30
2019-02-24T21:29:44.048Z,21.40
2019-02-24T21:32:11.264Z,21.40
2019-02-24T21:34:38.555Z,21.50
2019-02-24T21:37:05.560Z,21.60
2019-02-24T21:39:32.552Z,21.60
2019-02-24T21:41:59.382Z,21.70
2019-02-24T21:44:26.224Z,21.70
2019-02-24T21:46:53.065Z,21.80
2019-02-24T21:49:19.798Z,21.80
2019-02-24T21:51:46.538Z,21.90
2019-02-24T21:54:13.286Z,22.00
2019-02-24T21:56:40.282Z,22.00
2019-02-24T21:59:07.111Z,22.10
2019-02-24T22:01:33.808Z,22.10
2019-02-24T22:04:00.549Z,22.20
2019-02-24T22:06:27.402Z,22.20
2019-02-24T22:08:54.207Z,22.20
2019-02-24T22:11:20.984Z,22.20
2019-02-24T22:13:47.806Z,22.20
2019-02-24T22:16:14.658Z,22.20
2019-02-24T22:18:41.383Z,22.20
2019-02-24T22:21:08.221Z,22.20
2019-02-24T22:23:34.886Z,22.10
2019-02-24T22:26:01.601Z,22.10
2019-02-24T22:28:28.617Z,22.00
2019-02-24T22:30:56.604Z,22.10
2019-02-24T22:33:23.490Z,22.10
2019-02-24T22:35:50.317Z,22.00
2019-02-24T22:38:17.154Z,22.00
2019-02-24T22:40:44.104Z,21.90
2019-02-24T22:43:11.145Z,21.90
2019-02-24T22:45:37.972Z,21.80
2019-02-24T22:48:04.827Z,21.80
2019-02-24T22:50:31.668Z,21.60
2019-02-24T22:52:58.811Z,21.80
2019-02-24T22:55:25.669Z,21.80
2019-02-24T22:57:52.732Z,21.80
2019-02-24T23:00:19.738Z,21.90
2019-02-24T23:02:46.494Z,21.90
2019-02-24T23:05:13.339Z,22.00
2019-02-24T23:07:40.068Z,22.10
2019-02-24T23:10:06.899Z,22.20
2019-02-24T23:12:33.540Z,22.30
2019-02-24T23:15:00.277Z,22.40
2019-02-24T23:17:27.127Z,22.40
2019-02-24T23:19:53.825Z,22.50
2019-02-24T23:22:20.599Z,22.60
2019-02-24T23:24:47.333Z,22.60
2019-02-24T23:27:14.140Z,22.60
2019-02-24T23:29:41.670Z,22.60
2019-02-24T23:32:08.480Z,22.70
2019-02-24T23:34:35.333Z,22.60
2019-02-24T23:37:02.173Z,22.40
2019-02-24T23:39:28.896Z,22.40
2019-02-24T23:41:55.638Z,22.50
2019-02-24T23:44:22.376Z,22.50
2019-02-24T23:46:49.217Z,22.40
2019-02-24T23:49:16.228Z,22.40
2019-02-24T23:51:43.014Z,22.10
2019-02-24T23:54:10.050Z,22.20
2019-02-24T23:56:36.796Z,21.90
2019-02-24T23:59:03.638Z,22.00
